Time;durP1;ratioP1;P1;durP2;ratioP2;P2;SDS_P1;SDS_P2;PMS_P1;PMS_P2;Temp;Humidity;BMP_temperature;BMP_pressure;BME280_temperature;BME280_humidity;BME280_pressure;Samples;Min_cycle;Max_cycle;Signal;HPM_P1;HPM_P2
2021/11/02 00:04:46;;;;;;;10.30;5.00;;;;;;;6.59;97.29;99089.44;20820989;28;20099;-73
2021/11/02 00:14:48;;;;;;;10.43;5.03;;;;;;;6.59;97.61;99094.63;20820149;28;20053;-71
2021/11/02 00:34:54;;;;;;;8.80;4.70;;;;;;;6.59;98.04;99095.50;20818241;28;20054;-72
2021/11/02 00:44:56;;;;;;;9.70;5.32;;;;;;;6.72;98.09;99085.69;20818032;28;20801;-69
2021/11/02 00:54:58;;;;;;;9.02;5.03;;;;;;;6.75;97.61;99072.59;20819101;28;20103;-72
2021/11/02 01:04:59;;;;;;;12.90;5.68;;;;;;;6.76;97.87;99079.53;20817159;28;20049;-72
2021/11/02 01:15:01;;;;;;;15.00;6.55;;;;;;;6.90;97.79;99079.25;20816990;28;20041;-73
2021/11/02 01:25:04;;;;;;;16.05;6.72;;;;;;;6.96;97.55;99073.06;20827103;28;20053;-70
2021/11/02 01:35:06;;;;;;;11.73;5.70;;;;;;;7.06;97.17;99059.78;20832811;28;20058;-72
2021/11/02 01:45:10;;;;;;;10.20;5.80;;;;;;;7.13;97.11;99056.13;20832196;28;20053;-69
2021/11/02 01:55:16;;;;;;;14.05;5.75;;;;;;;7.25;96.42;99065.44;20831172;28;20049;-73
2021/11/02 02:05:36;;;;;;;11.15;5.53;;;;;;;7.37;95.98;99061.66;20829965;28;20057;-73
2021/11/02 02:15:56;;;;;;;11.15;5.13;;;;;;;7.41;95.82;99065.91;20830708;28;20453;-70
2021/11/02 02:26:12;;;;;;;10.20;4.63;;;;;;;7.41;95.81;99056.34;20828247;28;20454;-71
2021/11/02 02:36:17;;;;;;;9.85;4.78;;;;;;;7.44;95.69;99050.22;20827518;28;20088;-70
2021/11/02 02:46:20;;;;;;;10.95;5.35;;;;;;;7.50;95.36;99044.00;20826687;28;20080;-71
2021/11/02 02:56:22;;;;;;;12.75;5.28;;;;;;;7.46;95.67;99044.06;20826807;28;20091;-69
2021/11/02 03:06:26;;;;;;;11.15;5.22;;;;;;;7.45;95.70;99046.72;20826012;28;20114;-71
2021/11/02 03:16:45;;;;;;;16.07;6.40;;;;;;;7.50;95.45;99038.78;20823974;28;20505;-70
2021/11/02 03:58:00;;;;;;;10.70;5.00;;;;;;;7.35;96.30;99046.09;20821969;28;20164;-71
2021/11/02 06:32:28;;;;;;;18.27;9.25;;;;;;;5.55;99.25;99044.59;20829372;28;20045;-70
2021/11/02 06:53:08;;;;;;;18.35;9.90;;;;;;;5.71;98.95;99047.81;20827130;28;20095;-69
2021/11/02 07:24:11;;;;;;;29.73;18.67;;;;;;;5.99;98.06;99055.94;20813629;28;20653;-68
2021/11/02 08:46:58;;;;;;;15.20;6.65;;;;;;;7.87;95.03;99077.78;20806667;28;20510;-69
2021/11/02 08:57:00;;;;;;;16.43;6.67;;;;;;;8.09;94.18;99076.31;20810876;28;20509;-71
2021/11/02 09:07:04;;;;;;;13.85;7.30;;;;;;;8.24;94.83;99069.84;20810818;28;20045;-72
2021/11/02 09:17:08;;;;;;;15.57;8.67;;;;;;;8.23;94.86;99081.16;20810952;28;20104;-76
2021/11/02 09:27:12;;;;;;;30.37;15.43;;;;;;;8.18;95.35;99070.84;20808938;28;20053;-75
2021/11/02 09:37:19;;;;;;;16.00;9.05;;;;;;;8.26;95.47;99075.84;20808758;28;20502;-79
2021/11/02 09:47:43;;;;;;;12.50;7.32;;;;;;;8.32;96.43;99080.03;20821436;28;20049;-75
2021/11/02 09:58:12;;;;;;;11.90;7.53;;;;;;;8.47;97.26;99071.81;20823372;28;20057;-74
2021/11/02 10:08:58;;;;;;;9.13;6.00;;;;;;;8.88;96.12;99073.22;20821896;28;20045;-74
2021/11/02 10:19:24;;;;;;;8.83;5.20;;;;;;;9.13;95.75;99064.66;20758382;28;20041;-75
2021/11/02 10:29:49;;;;;;;10.35;3.70;;;;;;;9.14;94.05;99063.72;20774377;28;20396;-77
2021/11/02 10:40:28;;;;;;;8.57;3.25;;;;;;;9.39;93.09;99064.69;20851589;28;20056;-71
2021/11/02 10:50:38;;;;;;;5.10;1.88;;;;;;;9.57;91.36;99057.97;20901437;28;20102;-71
2021/11/02 11:00:41;;;;;;;6.05;1.63;;;;;;;9.65;91.13;99049.91;20900595;28;20049;-71
2021/11/02 11:10:48;;;;;;;4.78;1.60;;;;;;;9.80;89.28;99054.59;20892517;28;20140;-70
2021/11/02 11:20:51;;;;;;;5.28;1.00;;;;;;;9.74;89.04;99065.28;20815434;28;20045;-72
2021/11/02 11:30:54;;;;;;;3.08;1.27;;;;;;;9.69;89.83;99059.34;20815572;28;20045;-69
2021/11/02 11:40:56;;;;;;;7.38;1.55;;;;;;;9.86;89.90;99054.38;20816600;28;20049;-69
2021/11/02 11:51:01;;;;;;;4.03;1.40;;;;;;;9.84;87.44;99050.97;20814418;28;20045;-69
2021/11/02 12:01:17;;;;;;;6.15;1.67;;;;;;;9.86;89.16;99043.94;20813885;28;20111;-70
2021/11/02 12:11:22;;;;;;;4.35;1.30;;;;;;;10.42;86.37;99043.72;20769947;28;20046;-70
2021/11/02 12:21:26;;;;;;;3.10;0.60;;;;;;;10.52;84.61;99023.28;20812105;28;20041;-72
2021/11/02 12:31:28;;;;;;;2.55;0.70;;;;;;;10.18;86.16;99028.88;20809726;28;20049;-70
2021/11/02 12:41:30;;;;;;;1.90;0.68;;;;;;;10.23;86.91;99032.19;20811713;28;20443;-70
2021/11/02 12:51:39;;;;;;;3.05;0.90;;;;;;;10.12;87.69;99029.09;20810364;28;20099;-71
2021/11/02 13:01:41;;;;;;;2.95;0.90;;;;;;;9.97;88.61;99026.13;20809588;28;20053;-71
2021/11/02 13:11:45;;;;;;;4.47;1.50;;;;;;;9.58;92.31;99019.63;20792700;28;20049;-73
2021/11/02 13:21:48;;;;;;;3.17;0.95;;;;;;;9.34;93.76;99023.91;20741280;28;20050;-72
2021/11/02 13:31:54;;;;;;;3.58;1.35;;;;;;;9.29;94.33;99016.22;20744202;28;20049;-72
2021/11/02 13:41:57;;;;;;;4.22;1.85;;;;;;;9.19;96.19;99017.44;20788483;28;20111;-73
2021/11/02 13:51:58;;;;;;;4.18;2.00;;;;;;;9.15;96.28;99031.50;20823615;28;20126;-74
2021/11/02 14:02:00;;;;;;;4.22;1.08;;;;;;;8.51;92.27;99046.50;20821860;28;20053;-74
2021/11/02 14:12:28;;;;;;;2.03;0.88;;;;;;;8.55;91.82;99038.56;20821885;28;20073;-73
2021/11/02 14:22:48;;;;;;;3.50;1.00;;;;;;;8.94;90.73;99040.84;20820027;28;20426;-69
2021/11/02 14:32:51;;;;;;;7.07;1.35;;;;;;;8.76;92.34;99063.13;20819714;28;20111;-71
2021/11/02 14:42:55;;;;;;;0.93;0.52;;;;;;;8.48;93.38;99060.50;20819209;28;20042;-72
2021/11/02 14:53:24;;;;;;;2.90;0.60;;;;;;;8.50;92.45;99066.53;20818246;28;20107;-74
2021/11/02 15:03:32;;;;;;;2.60;1.10;;;;;;;8.68;92.92;99071.22;20817358;28;20407;-75
2021/11/02 15:13:36;;;;;;;3.15;0.50;;;;;;;8.71;93.08;99060.66;20784622;28;20188;-71
2021/11/02 15:23:41;;;;;;;0.98;0.50;;;;;;;8.51;92.69;99060.41;20732653;28;20061;-71
2021/11/02 15:34:14;;;;;;;0.75;0.50;;;;;;;8.41;93.57;99072.84;20733356;28;20141;-71
2021/11/02 15:44:17;;;;;;;3.80;1.20;;;;;;;8.32;94.61;99083.50;20731473;28;20133;-74
2021/11/02 15:54:20;;;;;;;3.03;1.15;;;;;;;8.07;94.86;99087.69;20731930;28;20050;-70
2021/11/02 16:04:24;;;;;;;6.57;2.97;;;;;;;7.94;97.02;99098.41;20730744;28;20422;-69
2021/11/02 16:14:25;;;;;;;2.70;1.13;;;;;;;8.02;96.72;99110.41;20769079;28;20414;-74
2021/11/02 16:24:27;;;;;;;4.30;1.88;;;;;;;8.02;95.25;99113.03;20810753;28;20045;-69
2021/11/02 16:34:28;;;;;;;5.00;1.75;;;;;;;7.94;95.76;99113.19;20810430;28;20495;-69
2021/11/02 16:44:35;;;;;;;4.50;1.90;;;;;;;8.05;95.93;99118.13;20810831;28;20049;-70
2021/11/02 16:54:43;;;;;;;4.60;2.10;;;;;;;8.05;96.24;99115.53;20810214;28;20053;-72
2021/11/02 17:05:05;;;;;;;5.88;3.00;;;;;;;8.02;95.95;99134.72;20808575;28;20053;-73
2021/11/02 17:15:07;;;;;;;7.97;3.40;;;;;;;8.00;95.47;99127.81;20765924;28;20046;-73
2021/11/02 17:25:09;;;;;;;4.22;2.10;;;;;;;7.89;95.83;99128.09;20725313;28;20454;-71
2021/11/02 17:35:12;;;;;;;6.18;2.80;;;;;;;7.86;96.99;99144.69;20724305;28;20462;-74
2021/11/02 17:45:14;;;;;;;4.53;2.30;;;;;;;7.91;96.21;99145.44;20736620;28;20050;-74
2021/11/02 17:55:16;;;;;;;9.73;5.75;;;;;;;8.01;96.93;99187.75;20726122;28;20096;-73
2021/11/02 18:05:18;;;;;;;6.95;4.22;;;;;;;7.98;97.45;99162.59;20731376;28;20057;-76
2021/11/02 18:15:21;;;;;;;7.28;3.70;;;;;;;7.84;97.29;99180.34;20785354;28;20103;-72
2021/11/02 18:25:24;;;;;;;9.70;5.30;;;;;;;7.67;97.70;99174.69;20818249;28;20059;-72
2021/11/02 18:35:26;;;;;;;7.63;4.00;;;;;;;7.41;98.02;99175.28;20818706;28;20465;-72
2021/11/02 18:45:28;;;;;;;16.50;11.07;;;;;;;7.35;98.54;99185.84;20819062;28;20057;-74
2021/11/02 18:55:30;;;;;;;11.52;8.55;;;;;;;7.45;98.89;99203.81;20817851;28;20103;-71
2021/11/02 19:05:32;;;;;;;16.45;10.45;;;;;;;7.52;98.69;99199.34;20817454;28;20119;-78
2021/11/02 19:15:33;;;;;;;7.45;4.30;;;;;;;7.62;98.62;99198.25;20770229;28;20096;-74
2021/11/02 19:25:35;;;;;;;11.07;5.03;;;;;;;7.68;97.97;99199.84;20732502;28;20507;-81
2021/11/02 19:35:39;;;;;;;9.82;5.18;;;;;;;7.64;98.19;99182.56;20734198;28;20396;-74
2021/11/02 19:45:42;;;;;;;10.13;7.00;;;;;;;7.53;98.33;99195.00;20733473;28;20123;-74
2021/11/02 19:55:43;;;;;;;18.30;11.18;;;;;;;7.52;99.20;99193.25;20731304;28;20058;-71
2021/11/02 20:05:47;;;;;;;12.38;8.88;;;;;;;7.57;98.86;99196.59;20731578;28;20533;-73
2021/11/02 20:15:49;;;;;;;14.47;9.57;;;;;;;7.51;98.71;99192.41;20779567;28;20049;-71
2021/11/02 20:25:56;;;;;;;13.02;8.07;;;;;;;7.55;98.83;99204.47;20808964;28;20100;-71
2021/11/02 20:36:01;;;;;;;9.68;5.07;;;;;;;7.50;98.28;99206.31;20801835;28;20096;-71
2021/11/02 20:46:04;;;;;;;10.07;5.88;;;;;;;7.39;98.47;99209.16;20810146;28;20136;-72
2021/11/02 20:56:07;;;;;;;8.70;5.55;;;;;;;7.42;98.32;99214.28;20809282;28;20049;-70
2021/11/02 21:06:10;;;;;;;10.77;5.15;;;;;;;7.49;98.81;99203.75;20808987;28;20207;-70
2021/11/02 21:16:14;;;;;;;18.13;9.82;;;;;;;7.56;98.87;99197.50;20757576;28;20054;-70
2021/11/02 21:26:16;;;;;;;17.63;10.90;;;;;;;7.34;98.59;99176.31;20727287;28;20103;-71
2021/11/02 21:36:20;;;;;;;10.77;5.55;;;;;;;7.17;99.11;99163.66;20726685;28;20111;-72
2021/11/02 21:46:22;;;;;;;11.03;7.73;;;;;;;7.00;99.43;99151.03;20742855;28;20088;-70
2021/11/02 21:56:27;;;;;;;14.77;7.68;;;;;;;6.93;99.28;99137.25;20742611;28;20633;-73
2021/11/02 22:06:30;;;;;;;14.75;8.52;;;;;;;6.85;99.05;99109.69;20740727;28;20054;-72
2021/11/02 22:16:34;;;;;;;12.55;7.75;;;;;;;6.78;99.39;99111.56;20795503;28;20057;-69
2021/11/02 22:26:36;;;;;;;16.10;9.43;;;;;;;6.67;100.00;99092.75;20821274;28;20061;-73
2021/11/02 22:36:38;;;;;;;20.90;12.05;;;;;;;6.59;99.96;99079.03;20819333;28;20442;-69
2021/11/02 22:46:40;;;;;;;17.85;10.20;;;;;;;6.50;100.00;99063.63;20819439;28;20469;-70
2021/11/02 22:56:42;;;;;;;19.48;11.65;;;;;;;6.45;100.00;99049.84;20819619;28;20132;-72
2021/11/02 23:06:45;;;;;;;14.70;9.85;;;;;;;6.37;99.48;99037.91;20820667;28;20576;-70
2021/11/02 23:16:46;;;;;;;16.08;10.15;;;;;;;6.29;99.24;99059.72;20825330;28;20045;-69
2021/11/02 23:26:52;;;;;;;18.45;11.35;;;;;;;6.29;99.53;99070.97;20823411;28;20049;-70
2021/11/02 23:36:54;;;;;;;19.42;12.10;;;;;;;6.30;99.16;99077.03;20822863;28;20107;-69
2021/11/02 23:46:55;;;;;;;18.60;12.15;;;;;;;6.18;99.23;99057.34;20822642;28;20127;-72
2021/11/02 23:56:57;;;;;;;18.77;12.07;;;;;;;6.24;99.03;99065.00;20822260;28;20103;-69
